KLAS/LAS METAR and TAF weather

Enter ICAO airport designator
Station Type Date Time Source
KLAS METAR 2021/05/09 23:56 UTC NOAA

KLAS 092356Z 28011G17KT 10SM FEW250 32/M12 A2973 RMK AO2 SLP045 T03171117 10317 20256 56030 $


Station Type Date Time Source
KLAS Decoded METAR 2021/05/09 23:56 UTC NOAA

MCCARRAN INTERNATIONAL AIRPORT , NV, United States (KLAS) 36-07N 115-16W 636M
May 09, 2021 - 07:56 PM EDT / 2021.05.09 2356 UTC
Wind: from the W (280 degrees) at 13 MPH (11 KT) gusting to 20 MPH (17 KT):0
Visibility: 10 mile(s):0
Sky conditions: mostly clear
Temperature: 89.1 F (31.7 C)
Dew Point: 10.9 F (-11.7 C)
Relative Humidity: 5%
Pressure (altimeter): 29.73 in. Hg (1006 hPa)
Pressure tendency: 0.09 inches (3.0 hPa) lower than three hours ago
ob: KLAS 092356Z 28011G17KT 10SM FEW250 32/M12 A2973 RMK AO2 SLP045 T03171117 10317 20256 56030
cycle: 0

Station Type Date Time Source
KLAS TAF 2021/05/09 21:58 UTC NOAA

TAF
AMD KLAS 092057Z 0921/1024 10006KT P6SM FEW250
FM092200 23012G20KT P6SM FEW250
FM100400 22010KT P6SM FEW200
FM101500 04009KT P6SM SKC

Example: see airport list